Terminal Aerodrome Forecast
Issued by NWS Green Bay, WI

Home | Current Version | Previous Version | Graphics & Text | Print | Product List | Glossary On
Versions: 1 2 3 4 5 6 7 8 9 10 11 12 13 14 15 16 17 18 19 20 21 22 23 24 25 26 27 28 29 30 31 32
994
FTUS43 KGRB 240321 AAB
TAFGRB
TAF AMD
KGRB 240321Z 2403/2424 16013KT P6SM OVC028 WS013/19040KT
     FM240500 18006KT P6SM VCSH OVC025 WS018/23040KT
      TEMPO 2406/2409 4SM -RA BR
     FM240900 20004KT 3SM -RA BR OVC014
     FM241300 VRB03KT 2SM -RA BR OVC007
     FM241600 03010KT 1 1/2SM RA BR OVC003=

USA.gov is the U.S. government's official web portal to all federal, state and local government web resources and services.